sensor_id;sensor_type;location;lat;lon;timestamp;temperature;humidity
15156;DHT22;7678;50.058;8.306;2024-01-10T00:00:15;-2.80;40.70
15156;DHT22;7678;50.058;8.306;2024-01-10T00:02:43;-2.80;40.50
15156;DHT22;7678;50.058;8.306;2024-01-10T00:05:12;-2.80;40.70
15156;DHT22;7678;50.058;8.306;2024-01-10T00:07:43;-2.80;40.80
15156;DHT22;7678;50.058;8.306;2024-01-10T00:10:11;-2.80;40.50
15156;DHT22;7678;50.058;8.306;2024-01-10T00:12:40;-2.90;40.90
15156;DHT22;7678;50.058;8.306;2024-01-10T00:15:13;-2.80;40.70
15156;DHT22;7678;50.058;8.306;2024-01-10T00:17:41;-2.80;41.00
15156;DHT22;7678;50.058;8.306;2024-01-10T00:20:10;-2.90;41.50
15156;DHT22;7678;50.058;8.306;2024-01-10T00:22:38;-2.80;41.40
15156;DHT22;7678;50.058;8.306;2024-01-10T00:25:07;-2.90;41.10
15156;DHT22;7678;50.058;8.306;2024-01-10T00:27:36;-2.90;41.70
15156;DHT22;7678;50.058;8.306;2024-01-10T00:30:07;-3.00;41.90
15156;DHT22;7678;50.058;8.306;2024-01-10T00:32:37;-3.00;42.20
15156;DHT22;7678;50.058;8.306;2024-01-10T00:35:07;-3.00;42.00
15156;DHT22;7678;50.058;8.306;2024-01-10T00:37:38;-3.10;42.40
15156;DHT22;7678;50.058;8.306;2024-01-10T00:40:08;-3.10;43.00
15156;DHT22;7678;50.058;8.306;2024-01-10T00:42:36;-3.20;43.60
15156;DHT22;7678;50.058;8.306;2024-01-10T00:45:05;-3.20;43.40
15156;DHT22;7678;50.058;8.306;2024-01-10T00:47:33;-3.20;43.50
15156;DHT22;7678;50.058;8.306;2024-01-10T00:50:03;-3.10;43.30
15156;DHT22;7678;50.058;8.306;2024-01-10T00:52:32;-3.20;43.60
15156;DHT22;7678;50.058;8.306;2024-01-10T00:55:01;-3.20;43.90
15156;DHT22;7678;50.058;8.306;2024-01-10T00:57:29;-3.20;43.40
15156;DHT22;7678;50.058;8.306;2024-01-10T00:59:58;-3.30;44.20
15156;DHT22;7678;50.058;8.306;2024-01-10T01:02:26;-3.30;44.20
15156;DHT22;7678;50.058;8.306;2024-01-10T01:04:55;-3.40;44.50
15156;DHT22;7678;50.058;8.306;2024-01-10T01:07:26;-3.50;44.30
15156;DHT22;7678;50.058;8.306;2024-01-10T01:09:54;-3.60;45.70
15156;DHT22;7678;50.058;8.306;2024-01-10T01:12:22;-3.60;45.60
15156;DHT22;7678;50.058;8.306;2024-01-10T01:14:50;-3.60;47.00
15156;DHT22;7678;50.058;8.306;2024-01-10T01:17:18;-3.70;47.70
15156;DHT22;7678;50.058;8.306;2024-01-10T01:19:47;-3.90;47.70
15156;DHT22;7678;50.058;8.306;2024-01-10T01:22:16;-3.90;48.40
15156;DHT22;7678;50.058;8.306;2024-01-10T01:24:45;-4.00;48.80
15156;DHT22;7678;50.058;8.306;2024-01-10T01:27:13;-3.90;49.60
15156;DHT22;7678;50.058;8.306;2024-01-10T01:29:42;-4.00;50.50
15156;DHT22;7678;50.058;8.306;2024-01-10T01:32:10;-4.00;51.10
15156;DHT22;7678;50.058;8.306;2024-01-10T01:34:38;-4.20;51.50
15156;DHT22;7678;50.058;8.306;2024-01-10T01:37:07;-4.30;51.80
15156;DHT22;7678;50.058;8.306;2024-01-10T01:39:38;-4.30;52.20
15156;DHT22;7678;50.058;8.306;2024-01-10T01:42:07;-4.20;52.20
15156;DHT22;7678;50.058;8.306;2024-01-10T01:44:35;-4.10;51.20
15156;DHT22;7678;50.058;8.306;2024-01-10T01:47:04;-4.00;50.80
15156;DHT22;7678;50.058;8.306;2024-01-10T01:49:32;-4.00;50.20
15156;DHT22;7678;50.058;8.306;2024-01-10T01:52:01;-3.90;50.20
15156;DHT22;7678;50.058;8.306;2024-01-10T01:54:31;-4.00;50.50
15156;DHT22;7678;50.058;8.306;2024-01-10T01:57:00;-4.00;50.30
15156;DHT22;7678;50.058;8.306;2024-01-10T01:59:31;-4.10;50.90
15156;DHT22;7678;50.058;8.306;2024-01-10T02:02:03;-4.10;51.00
15156;DHT22;7678;50.058;8.306;2024-01-10T02:04:32;-4.20;52.80
15156;DHT22;7678;50.058;8.306;2024-01-10T02:07:00;-4.30;53.10
15156;DHT22;7678;50.058;8.306;2024-01-10T02:09:29;-4.30;52.70
15156;DHT22;7678;50.058;8.306;2024-01-10T02:11:58;-4.40;53.70
15156;DHT22;7678;50.058;8.306;2024-01-10T02:14:26;-4.50;54.30
15156;DHT22;7678;50.058;8.306;2024-01-10T02:16:56;-4.50;55.00
15156;DHT22;7678;50.058;8.306;2024-01-10T02:19:25;-4.50;55.00
15156;DHT22;7678;50.058;8.306;2024-01-10T02:21:53;-4.50;55.60
15156;DHT22;7678;50.058;8.306;2024-01-10T02:24:23;-4.60;55.30
15156;DHT22;7678;50.058;8.306;2024-01-10T02:26:52;-4.60;55.40
15156;DHT22;7678;50.058;8.306;2024-01-10T02:29:21;-4.60;56.00
15156;DHT22;7678;50.058;8.306;2024-01-10T02:31:51;-4.70;55.60
15156;DHT22;7678;50.058;8.306;2024-01-10T02:34:19;-4.60;56.00
15156;DHT22;7678;50.058;8.306;2024-01-10T02:36:47;-4.60;55.80
15156;DHT22;7678;50.058;8.306;2024-01-10T02:39:15;-4.60;56.00
15156;DHT22;7678;50.058;8.306;2024-01-10T02:41:44;-4.70;56.30
15156;DHT22;7678;50.058;8.306;2024-01-10T02:44:13;-4.60;56.40
15156;DHT22;7678;50.058;8.306;2024-01-10T02:46:42;-4.60;55.70
15156;DHT22;7678;50.058;8.306;2024-01-10T02:49:11;-4.60;55.60
15156;DHT22;7678;50.058;8.306;2024-01-10T02:51:39;-4.70;55.20
15156;DHT22;7678;50.058;8.306;2024-01-10T02:54:07;-4.60;55.10
15156;DHT22;7678;50.058;8.306;2024-01-10T02:56:35;-4.60;55.10
15156;DHT22;7678;50.058;8.306;2024-01-10T02:59:04;-4.60;55.70
15156;DHT22;7678;50.058;8.306;2024-01-10T03:01:33;-4.60;55.60
15156;DHT22;7678;50.058;8.306;2024-01-10T03:04:02;-4.60;55.90
15156;DHT22;7678;50.058;8.306;2024-01-10T03:06:30;-4.60;55.80
15156;DHT22;7678;50.058;8.306;2024-01-10T03:08:58;-4.60;56.00
15156;DHT22;7678;50.058;8.306;2024-01-10T03:11:27;-4.60;56.10
15156;DHT22;7678;50.058;8.306;2024-01-10T03:14:02;-4.60;56.10
15156;DHT22;7678;50.058;8.306;2024-01-10T03:16:33;-4.70;55.70
15156;DHT22;7678;50.058;8.306;2024-01-10T03:19:02;-4.80;55.50
15156;DHT22;7678;50.058;8.306;2024-01-10T03:21:30;-4.80;55.80
15156;DHT22;7678;50.058;8.306;2024-01-10T03:24:00;-4.80;56.10
15156;DHT22;7678;50.058;8.306;2024-01-10T03:26:29;-4.90;56.00
15156;DHT22;7678;50.058;8.306;2024-01-10T03:28:57;-4.80;57.10
15156;DHT22;7678;50.058;8.306;2024-01-10T03:31:26;-4.80;57.10
15156;DHT22;7678;50.058;8.306;2024-01-10T03:33:57;-4.80;55.90
15156;DHT22;7678;50.058;8.306;2024-01-10T03:36:26;-4.90;55.20
15156;DHT22;7678;50.058;8.306;2024-01-10T03:38:54;-4.80;57.40
15156;DHT22;7678;50.058;8.306;2024-01-10T03:41:23;-4.80;58.20
15156;DHT22;7678;50.058;8.306;2024-01-10T03:43:51;-4.70;57.40
15156;DHT22;7678;50.058;8.306;2024-01-10T03:46:20;-4.80;57.10
15156;DHT22;7678;50.058;8.306;2024-01-10T03:48:48;-4.80;58.60
15156;DHT22;7678;50.058;8.306;2024-01-10T03:51:18;-4.80;58.20
15156;DHT22;7678;50.058;8.306;2024-01-10T03:53:47;-4.70;58.90
15156;DHT22;7678;50.058;8.306;2024-01-10T03:56:16;-4.80;58.60
15156;DHT22;7678;50.058;8.306;2024-01-10T03:58:45;-4.70;58.40
15156;DHT22;7678;50.058;8.306;2024-01-10T04:01:15;-4.60;58.60
15156;DHT22;7678;50.058;8.306;2024-01-10T04:03:44;-4.80;58.60
15156;DHT22;7678;50.058;8.306;2024-01-10T04:06:13;-5.00;59.50
15156;DHT22;7678;50.058;8.306;2024-01-10T04:08:43;-5.00;60.00
15156;DHT22;7678;50.058;8.306;2024-01-10T04:11:12;-4.90;60.10
15156;DHT22;7678;50.058;8.306;2024-01-10T04:13:40;-4.90;60.30
15156;DHT22;7678;50.058;8.306;2024-01-10T04:16:08;-4.90;61.00
15156;DHT22;7678;50.058;8.306;2024-01-10T04:18:36;-4.80;61.60
15156;DHT22;7678;50.058;8.306;2024-01-10T04:21:05;-4.90;61.60
15156;DHT22;7678;50.058;8.306;2024-01-10T04:23:34;-4.90;61.80
15156;DHT22;7678;50.058;8.306;2024-01-10T04:26:04;-5.00;62.20
15156;DHT22;7678;50.058;8.306;2024-01-10T04:28:32;-5.00;62.60
15156;DHT22;7678;50.058;8.306;2024-01-10T04:31:00;-4.90;64.10
15156;DHT22;7678;50.058;8.306;2024-01-10T04:33:29;-4.80;62.90
15156;DHT22;7678;50.058;8.306;2024-01-10T04:35:57;-4.80;63.00
15156;DHT22;7678;50.058;8.306;2024-01-10T04:38:26;-4.80;59.80
15156;DHT22;7678;50.058;8.306;2024-01-10T04:40:54;-4.70;56.90
15156;DHT22;7678;50.058;8.306;2024-01-10T04:43:24;-4.60;57.20
15156;DHT22;7678;50.058;8.306;2024-01-10T04:45:53;-4.50;55.70
15156;DHT22;7678;50.058;8.306;2024-01-10T04:48:21;-4.30;54.90
15156;DHT22;7678;50.058;8.306;2024-01-10T04:50:49;-4.30;54.00
15156;DHT22;7678;50.058;8.306;2024-01-10T04:53:18;-4.20;54.80
15156;DHT22;7678;50.058;8.306;2024-01-10T04:55:46;-4.10;54.00
15156;DHT22;7678;50.058;8.306;2024-01-10T04:58:18;-4.10;52.20
15156;DHT22;7678;50.058;8.306;2024-01-10T05:00:47;-4.00;52.40
15156;DHT22;7678;50.058;8.306;2024-01-10T05:03:15;-4.00;52.40
15156;DHT22;7678;50.058;8.306;2024-01-10T05:05:44;-4.00;52.40
15156;DHT22;7678;50.058;8.306;2024-01-10T05:08:12;-3.90;52.30
15156;DHT22;7678;50.058;8.306;2024-01-10T05:10:41;-3.90;51.30
15156;DHT22;7678;50.058;8.306;2024-01-10T05:13:09;-3.90;51.10
15156;DHT22;7678;50.058;8.306;2024-01-10T05:15:37;-4.00;51.80
15156;DHT22;7678;50.058;8.306;2024-01-10T05:18:07;-4.10;52.50
15156;DHT22;7678;50.058;8.306;2024-01-10T05:20:38;-4.10;52.30
15156;DHT22;7678;50.058;8.306;2024-01-10T05:23:06;-4.00;52.00
15156;DHT22;7678;50.058;8.306;2024-01-10T05:25:34;-4.00;52.30
15156;DHT22;7678;50.058;8.306;2024-01-10T05:28:03;-4.10;51.70
15156;DHT22;7678;50.058;8.306;2024-01-10T05:30:32;-4.10;52.90
15156;DHT22;7678;50.058;8.306;2024-01-10T05:33:00;-4.10;52.50
15156;DHT22;7678;50.058;8.306;2024-01-10T05:35:30;-4.20;51.60
15156;DHT22;7678;50.058;8.306;2024-01-10T05:37:59;-4.10;51.60
15156;DHT22;7678;50.058;8.306;2024-01-10T05:40:30;-4.20;53.30
15156;DHT22;7678;50.058;8.306;2024-01-10T05:42:58;-4.30;53.50
15156;DHT22;7678;50.058;8.306;2024-01-10T05:45:27;-4.20;52.90
15156;DHT22;7678;50.058;8.306;2024-01-10T05:47:56;-4.20;53.70
15156;DHT22;7678;50.058;8.306;2024-01-10T05:50:25;-4.30;54.90
15156;DHT22;7678;50.058;8.306;2024-01-10T05:52:55;-4.30;55.30
15156;DHT22;7678;50.058;8.306;2024-01-10T05:55:23;-4.40;56.20
15156;DHT22;7678;50.058;8.306;2024-01-10T05:57:51;-4.40;55.80
15156;DHT22;7678;50.058;8.306;2024-01-10T06:00:21;-4.40;54.90
15156;DHT22;7678;50.058;8.306;2024-01-10T06:02:49;-4.40;54.80
15156;DHT22;7678;50.058;8.306;2024-01-10T06:05:18;-4.40;54.80
15156;DHT22;7678;50.058;8.306;2024-01-10T06:07:47;-4.50;54.60
15156;DHT22;7678;50.058;8.306;2024-01-10T06:10:16;-4.50;54.30
15156;DHT22;7678;50.058;8.306;2024-01-10T06:12:45;-4.60;55.30
15156;DHT22;7678;50.058;8.306;2024-01-10T06:15:13;-4.70;55.20
15156;DHT22;7678;50.058;8.306;2024-01-10T06:17:41;-4.70;55.40
15156;DHT22;7678;50.058;8.306;2024-01-10T06:20:10;-4.70;56.70
15156;DHT22;7678;50.058;8.306;2024-01-10T06:22:39;-4.60;55.90
15156;DHT22;7678;50.058;8.306;2024-01-10T06:25:08;-4.50;56.20
15156;DHT22;7678;50.058;8.306;2024-01-10T06:27:38;-4.40;56.00
15156;DHT22;7678;50.058;8.306;2024-01-10T06:30:08;-4.60;55.90
15156;DHT22;7678;50.058;8.306;2024-01-10T06:32:36;-4.70;56.90
15156;DHT22;7678;50.058;8.306;2024-01-10T06:35:05;-4.70;56.90
15156;DHT22;7678;50.058;8.306;2024-01-10T06:37:37;-4.70;57.60
15156;DHT22;7678;50.058;8.306;2024-01-10T06:40:06;-4.70;57.90
15156;DHT22;7678;50.058;8.306;2024-01-10T06:42:35;-4.70;58.50
15156;DHT22;7678;50.058;8.306;2024-01-10T06:45:08;-4.70;57.90
15156;DHT22;7678;50.058;8.306;2024-01-10T06:47:36;-4.60;57.40
15156;DHT22;7678;50.058;8.306;2024-01-10T06:50:07;-4.60;58.10
15156;DHT22;7678;50.058;8.306;2024-01-10T06:52:36;-4.70;57.70
15156;DHT22;7678;50.058;8.306;2024-01-10T06:55:06;-4.60;57.90
15156;DHT22;7678;50.058;8.306;2024-01-10T06:57:35;-4.60;57.90
15156;DHT22;7678;50.058;8.306;2024-01-10T07:00:07;-4.60;57.00
15156;DHT22;7678;50.058;8.306;2024-01-10T07:02:38;-4.50;56.50
15156;DHT22;7678;50.058;8.306;2024-01-10T07:05:08;-4.50;56.50
15156;DHT22;7678;50.058;8.306;2024-01-10T07:07:36;-4.40;56.30
15156;DHT22;7678;50.058;8.306;2024-01-10T07:10:05;-4.40;55.70
15156;DHT22;7678;50.058;8.306;2024-01-10T07:12:34;-4.30;56.30
15156;DHT22;7678;50.058;8.306;2024-01-10T07:15:03;-4.30;55.80
15156;DHT22;7678;50.058;8.306;2024-01-10T07:17:33;-4.20;56.50
15156;DHT22;7678;50.058;8.306;2024-01-10T07:20:02;-4.20;55.70
15156;DHT22;7678;50.058;8.306;2024-01-10T07:22:33;-4.10;55.00
15156;DHT22;7678;50.058;8.306;2024-01-10T07:25:02;-4.10;54.60
15156;DHT22;7678;50.058;8.306;2024-01-10T07:27:32;-4.10;56.00
15156;DHT22;7678;50.058;8.306;2024-01-10T07:30:01;-4.10;54.90
15156;DHT22;7678;50.058;8.306;2024-01-10T07:32:29;-4.20;55.10
15156;DHT22;7678;50.058;8.306;2024-01-10T07:34:59;-4.10;55.90
15156;DHT22;7678;50.058;8.306;2024-01-10T07:37:28;-4.00;55.60
15156;DHT22;7678;50.058;8.306;2024-01-10T07:39:57;-4.00;55.20
15156;DHT22;7678;50.058;8.306;2024-01-10T07:42:26;-3.90;54.30
15156;DHT22;7678;50.058;8.306;2024-01-10T07:44:56;-3.90;54.60
15156;DHT22;7678;50.058;8.306;2024-01-10T07:47:25;-3.80;54.30
15156;DHT22;7678;50.058;8.306;2024-01-10T07:49:54;-3.80;54.50
15156;DHT22;7678;50.058;8.306;2024-01-10T07:52:25;-3.80;53.60
15156;DHT22;7678;50.058;8.306;2024-01-10T07:54:54;-3.80;53.50
15156;DHT22;7678;50.058;8.306;2024-01-10T07:57:22;-3.80;53.80
15156;DHT22;7678;50.058;8.306;2024-01-10T07:59:51;-3.80;53.90
15156;DHT22;7678;50.058;8.306;2024-01-10T08:02:20;-3.70;54.30
15156;DHT22;7678;50.058;8.306;2024-01-10T08:04:50;-3.70;54.20
15156;DHT22;7678;50.058;8.306;2024-01-10T08:07:19;-3.70;54.80
15156;DHT22;7678;50.058;8.306;2024-01-10T08:09:50;-3.70;54.40
15156;DHT22;7678;50.058;8.306;2024-01-10T08:12:19;-3.70;54.40
15156;DHT22;7678;50.058;8.306;2024-01-10T08:14:50;-3.60;54.60
15156;DHT22;7678;50.058;8.306;2024-01-10T08:17:19;-3.60;53.90
15156;DHT22;7678;50.058;8.306;2024-01-10T08:19:47;-3.50;55.10
15156;DHT22;7678;50.058;8.306;2024-01-10T08:22:16;-3.50;54.70
15156;DHT22;7678;50.058;8.306;2024-01-10T08:24:46;-3.40;54.50
15156;DHT22;7678;50.058;8.306;2024-01-10T08:27:16;-3.40;54.40
15156;DHT22;7678;50.058;8.306;2024-01-10T08:29:45;-3.40;54.30
15156;DHT22;7678;50.058;8.306;2024-01-10T08:32:14;-3.30;54.90
15156;DHT22;7678;50.058;8.306;2024-01-10T08:34:44;-3.20;53.50
15156;DHT22;7678;50.058;8.306;2024-01-10T08:37:13;-3.10;53.10
15156;DHT22;7678;50.058;8.306;2024-01-10T08:39:44;-3.10;52.80
15156;DHT22;7678;50.058;8.306;2024-01-10T08:42:16;-3.00;53.20
15156;DHT22;7678;50.058;8.306;2024-01-10T08:44:44;-3.00;52.90
15156;DHT22;7678;50.058;8.306;2024-01-10T08:47:19;-3.00;52.50
15156;DHT22;7678;50.058;8.306;2024-01-10T08:49:48;-2.90;52.30
15156;DHT22;7678;50.058;8.306;2024-01-10T08:52:18;-2.80;52.20
15156;DHT22;7678;50.058;8.306;2024-01-10T08:54:46;-2.80;52.30
15156;DHT22;7678;50.058;8.306;2024-01-10T08:57:17;-2.70;52.20
15156;DHT22;7678;50.058;8.306;2024-01-10T08:59:45;-2.70;51.90
15156;DHT22;7678;50.058;8.306;2024-01-10T09:02:14;-2.60;52.00
15156;DHT22;7678;50.058;8.306;2024-01-10T09:04:43;-2.70;51.50
15156;DHT22;7678;50.058;8.306;2024-01-10T09:07:12;-2.70;51.90
15156;DHT22;7678;50.058;8.306;2024-01-10T09:09:41;-2.70;52.00
15156;DHT22;7678;50.058;8.306;2024-01-10T09:12:09;-2.70;52.00
15156;DHT22;7678;50.058;8.306;2024-01-10T09:14:39;-2.70;52.00
15156;DHT22;7678;50.058;8.306;2024-01-10T09:17:07;-2.70;51.30
15156;DHT22;7678;50.058;8.306;2024-01-10T09:19:36;-2.70;51.30
15156;DHT22;7678;50.058;8.306;2024-01-10T09:22:04;-2.60;51.30
15156;DHT22;7678;50.058;8.306;2024-01-10T09:24:34;-2.60;52.00
15156;DHT22;7678;50.058;8.306;2024-01-10T09:27:02;-2.60;51.30
15156;DHT22;7678;50.058;8.306;2024-01-10T09:29:31;-2.50;50.90
15156;DHT22;7678;50.058;8.306;2024-01-10T09:32:00;-2.50;50.80
15156;DHT22;7678;50.058;8.306;2024-01-10T09:34:29;-2.50;50.70
15156;DHT22;7678;50.058;8.306;2024-01-10T09:36:58;-2.40;51.20
15156;DHT22;7678;50.058;8.306;2024-01-10T09:39:28;-2.40;51.20
15156;DHT22;7678;50.058;8.306;2024-01-10T09:41:58;-2.30;51.50
15156;DHT22;7678;50.058;8.306;2024-01-10T09:44:29;-2.30;51.50
15156;DHT22;7678;50.058;8.306;2024-01-10T09:46:58;-2.20;51.10
15156;DHT22;7678;50.058;8.306;2024-01-10T09:49:27;-2.20;51.50
15156;DHT22;7678;50.058;8.306;2024-01-10T09:51:58;-2.10;51.30
15156;DHT22;7678;50.058;8.306;2024-01-10T09:54:30;-2.10;50.70
15156;DHT22;7678;50.058;8.306;2024-01-10T09:56:58;-2.00;50.30
15156;DHT22;7678;50.058;8.306;2024-01-10T09:59:26;-2.00;50.20
15156;DHT22;7678;50.058;8.306;2024-01-10T10:01:56;-1.90;50.70
15156;DHT22;7678;50.058;8.306;2024-01-10T10:04:28;-2.00;50.90
15156;DHT22;7678;50.058;8.306;2024-01-10T10:07:00;-2.00;51.00
15156;DHT22;7678;50.058;8.306;2024-01-10T10:09:30;-2.00;51.50
15156;DHT22;7678;50.058;8.306;2024-01-10T10:11:59;-1.90;50.90
15156;DHT22;7678;50.058;8.306;2024-01-10T10:14:28;-2.00;51.30
15156;DHT22;7678;50.058;8.306;2024-01-10T10:17:13;-2.00;51.30
15156;DHT22;7678;50.058;8.306;2024-01-10T10:19:43;-2.00;50.70
15156;DHT22;7678;50.058;8.306;2024-01-10T10:22:12;-1.90;51.90
15156;DHT22;7678;50.058;8.306;2024-01-10T10:24:41;-1.90;52.20
15156;DHT22;7678;50.058;8.306;2024-01-10T10:27:12;-1.90;51.60
15156;DHT22;7678;50.058;8.306;2024-01-10T10:29:42;-1.90;51.50
15156;DHT22;7678;50.058;8.306;2024-01-10T10:32:14;-1.90;52.60
15156;DHT22;7678;50.058;8.306;2024-01-10T10:34:47;-1.80;52.20
15156;DHT22;7678;50.058;8.306;2024-01-10T10:37:15;-1.80;52.50
15156;DHT22;7678;50.058;8.306;2024-01-10T10:39:44;-1.80;51.90
15156;DHT22;7678;50.058;8.306;2024-01-10T10:42:13;-1.80;51.30
15156;DHT22;7678;50.058;8.306;2024-01-10T10:44:43;-1.70;51.60
15156;DHT22;7678;50.058;8.306;2024-01-10T10:47:14;-1.60;52.10
15156;DHT22;7678;50.058;8.306;2024-01-10T10:49:50;-1.50;52.00
15156;DHT22;7678;50.058;8.306;2024-01-10T10:52:21;-1.60;51.80
15156;DHT22;7678;50.058;8.306;2024-01-10T10:54:53;-1.60;51.50
15156;DHT22;7678;50.058;8.306;2024-01-10T10:57:25;-1.50;51.20
15156;DHT22;7678;50.058;8.306;2024-01-10T10:59:55;-1.50;51.90
15156;DHT22;7678;50.058;8.306;2024-01-10T11:02:25;-1.50;52.20
15156;DHT22;7678;50.058;8.306;2024-01-10T11:04:59;-1.50;51.50
15156;DHT22;7678;50.058;8.306;2024-01-10T11:07:30;-1.50;50.90
15156;DHT22;7678;50.058;8.306;2024-01-10T11:09:59;-1.50;51.20
15156;DHT22;7678;50.058;8.306;2024-01-10T11:12:43;-1.40;51.40
15156;DHT22;7678;50.058;8.306;2024-01-10T11:15:24;-1.30;51.30
15156;DHT22;7678;50.058;8.306;2024-01-10T11:18:09;-1.30;50.80
15156;DHT22;7678;50.058;8.306;2024-01-10T11:20:54;-1.20;51.80
15156;DHT22;7678;50.058;8.306;2024-01-10T11:23:40;-1.30;51.20
15156;DHT22;7678;50.058;8.306;2024-01-10T11:26:14;-1.10;51.60
15156;DHT22;7678;50.058;8.306;2024-01-10T11:28:43;-1.10;51.50
15156;DHT22;7678;50.058;8.306;2024-01-10T11:31:14;-1.10;51.30
15156;DHT22;7678;50.058;8.306;2024-01-10T11:33:43;-1.00;51.10
15156;DHT22;7678;50.058;8.306;2024-01-10T11:36:15;-0.90;51.20
15156;DHT22;7678;50.058;8.306;2024-01-10T11:38:49;-0.80;50.60
15156;DHT22;7678;50.058;8.306;2024-01-10T11:41:22;-0.60;50.80
15156;DHT22;7678;50.058;8.306;2024-01-10T11:44:25;-0.50;50.10
15156;DHT22;7678;50.058;8.306;2024-01-10T11:46:55;-0.40;50.20
15156;DHT22;7678;50.058;8.306;2024-01-10T11:49:25;-0.30;49.30
15156;DHT22;7678;50.058;8.306;2024-01-10T11:51:56;-0.30;49.60
15156;DHT22;7678;50.058;8.306;2024-01-10T11:54:38;-0.20;49.00
15156;DHT22;7678;50.058;8.306;2024-01-10T11:57:08;-0.30;49.10
15156;DHT22;7678;50.058;8.306;2024-01-10T11:59:43;-0.40;49.10
15156;DHT22;7678;50.058;8.306;2024-01-10T12:02:14;-0.40;49.20
15156;DHT22;7678;50.058;8.306;2024-01-10T12:04:43;-0.50;48.40
15156;DHT22;7678;50.058;8.306;2024-01-10T12:07:17;-0.40;49.30
15156;DHT22;7678;50.058;8.306;2024-01-10T12:09:47;-0.40;48.60
15156;DHT22;7678;50.058;8.306;2024-01-10T12:12:15;-0.30;48.00
15156;DHT22;7678;50.058;8.306;2024-01-10T12:14:44;-0.40;48.20
15156;DHT22;7678;50.058;8.306;2024-01-10T12:17:13;-0.40;48.80
15156;DHT22;7678;50.058;8.306;2024-01-10T12:19:42;-0.40;48.50
15156;DHT22;7678;50.058;8.306;2024-01-10T12:22:13;-0.40;48.30
15156;DHT22;7678;50.058;8.306;2024-01-10T12:24:47;-0.20;48.50
15156;DHT22;7678;50.058;8.306;2024-01-10T12:27:18;0.00;48.50
15156;DHT22;7678;50.058;8.306;2024-01-10T12:29:50;-0.10;47.70
15156;DHT22;7678;50.058;8.306;2024-01-10T12:32:21;-0.10;47.90
15156;DHT22;7678;50.058;8.306;2024-01-10T12:34:57;0.00;48.10
15156;DHT22;7678;50.058;8.306;2024-01-10T12:37:27;0.00;47.50
15156;DHT22;7678;50.058;8.306;2024-01-10T12:39:57;0.10;47.50
15156;DHT22;7678;50.058;8.306;2024-01-10T12:42:25;0.10;47.20
15156;DHT22;7678;50.058;8.306;2024-01-10T12:44:53;0.00;47.90
15156;DHT22;7678;50.058;8.306;2024-01-10T12:47:22;0.00;47.90
15156;DHT22;7678;50.058;8.306;2024-01-10T12:49:52;0.00;47.90
15156;DHT22;7678;50.058;8.306;2024-01-10T12:52:21;0.00;48.20
15156;DHT22;7678;50.058;8.306;2024-01-10T12:54:53;0.00;47.90
15156;DHT22;7678;50.058;8.306;2024-01-10T13:00:19;0.00;48.10
15156;DHT22;7678;50.058;8.306;2024-01-10T13:02:47;-0.10;48.50
15156;DHT22;7678;50.058;8.306;2024-01-10T13:05:15;-0.20;48.50
15156;DHT22;7678;50.058;8.306;2024-01-10T13:07:46;-0.20;48.10
15156;DHT22;7678;50.058;8.306;2024-01-10T13:10:15;-0.30;48.50
15156;DHT22;7678;50.058;8.306;2024-01-10T13:12:43;-0.30;49.40
15156;DHT22;7678;50.058;8.306;2024-01-10T13:15:12;-0.30;49.00
15156;DHT22;7678;50.058;8.306;2024-01-10T13:17:43;-0.40;49.40
15156;DHT22;7678;50.058;8.306;2024-01-10T13:20:13;-0.40;49.00
15156;DHT22;7678;50.058;8.306;2024-01-10T13:22:43;-0.40;49.10
15156;DHT22;7678;50.058;8.306;2024-01-10T13:25:13;-0.50;49.60
15156;DHT22;7678;50.058;8.306;2024-01-10T13:27:42;-0.50;49.30
15156;DHT22;7678;50.058;8.306;2024-01-10T13:30:11;-0.60;49.80
15156;DHT22;7678;50.058;8.306;2024-01-10T13:32:43;-0.60;49.20
15156;DHT22;7678;50.058;8.306;2024-01-10T13:35:12;-0.60;49.40
15156;DHT22;7678;50.058;8.306;2024-01-10T13:37:40;-0.70;49.90
15156;DHT22;7678;50.058;8.306;2024-01-10T13:40:11;-0.70;50.00
15156;DHT22;7678;50.058;8.306;2024-01-10T13:42:41;-0.70;50.20
15156;DHT22;7678;50.058;8.306;2024-01-10T13:45:10;-0.60;49.90
15156;DHT22;7678;50.058;8.306;2024-01-10T13:47:53;-0.60;50.10
15156;DHT22;7678;50.058;8.306;2024-01-10T13:50:22;-0.60;49.70
15156;DHT22;7678;50.058;8.306;2024-01-10T13:52:51;-0.60;50.00
15156;DHT22;7678;50.058;8.306;2024-01-10T13:55:24;-0.70;50.00
15156;DHT22;7678;50.058;8.306;2024-01-10T13:57:52;-0.70;50.20
15156;DHT22;7678;50.058;8.306;2024-01-10T14:00:23;-0.70;50.20
15156;DHT22;7678;50.058;8.306;2024-01-10T14:02:54;-0.80;50.60
15156;DHT22;7678;50.058;8.306;2024-01-10T14:05:27;-0.70;50.70
15156;DHT22;7678;50.058;8.306;2024-01-10T14:07:57;-0.80;50.90
15156;DHT22;7678;50.058;8.306;2024-01-10T14:10:26;-0.80;51.20
15156;DHT22;7678;50.058;8.306;2024-01-10T14:12:58;-0.80;50.90
15156;DHT22;7678;50.058;8.306;2024-01-10T14:15:27;-0.90;51.70
15156;DHT22;7678;50.058;8.306;2024-01-10T14:18:06;-0.80;52.20
15156;DHT22;7678;50.058;8.306;2024-01-10T14:20:36;-0.80;51.80
15156;DHT22;7678;50.058;8.306;2024-01-10T14:23:08;-0.80;52.00
15156;DHT22;7678;50.058;8.306;2024-01-10T14:25:37;-0.90;52.60
15156;DHT22;7678;50.058;8.306;2024-01-10T14:28:07;-0.80;52.10
15156;DHT22;7678;50.058;8.306;2024-01-10T14:30:35;-0.90;52.60
15156;DHT22;7678;50.058;8.306;2024-01-10T14:33:06;-0.80;52.40
15156;DHT22;7678;50.058;8.306;2024-01-10T14:35:36;-0.90;52.70
15156;DHT22;7678;50.058;8.306;2024-01-10T14:38:05;-0.90;52.90
15156;DHT22;7678;50.058;8.306;2024-01-10T14:40:35;-1.00;53.70
15156;DHT22;7678;50.058;8.306;2024-01-10T14:43:03;-0.80;53.00
15156;DHT22;7678;50.058;8.306;2024-01-10T14:45:33;-0.90;52.40
15156;DHT22;7678;50.058;8.306;2024-01-10T14:48:06;-1.00;52.80
15156;DHT22;7678;50.058;8.306;2024-01-10T14:50:37;-1.10;52.90
15156;DHT22;7678;50.058;8.306;2024-01-10T14:53:07;-1.10;53.20
15156;DHT22;7678;50.058;8.306;2024-01-10T14:55:36;-1.20;53.20
15156;DHT22;7678;50.058;8.306;2024-01-10T14:58:05;-1.10;53.40
15156;DHT22;7678;50.058;8.306;2024-01-10T15:00:34;-1.30;54.20
15156;DHT22;7678;50.058;8.306;2024-01-10T15:03:03;-1.40;54.70
15156;DHT22;7678;50.058;8.306;2024-01-10T15:05:49;-1.40;54.80
15156;DHT22;7678;50.058;8.306;2024-01-10T15:08:28;-1.30;54.00
15156;DHT22;7678;50.058;8.306;2024-01-10T15:10:57;-1.30;53.60
15156;DHT22;7678;50.058;8.306;2024-01-10T15:13:26;-1.40;54.00
15156;DHT22;7678;50.058;8.306;2024-01-10T15:16:00;-1.40;54.50
15156;DHT22;7678;50.058;8.306;2024-01-10T15:18:30;-1.40;54.80
15156;DHT22;7678;50.058;8.306;2024-01-10T15:21:02;-1.50;55.10
15156;DHT22;7678;50.058;8.306;2024-01-10T15:23:32;-1.60;56.00
15156;DHT22;7678;50.058;8.306;2024-01-10T15:26:06;-1.60;55.80
15156;DHT22;7678;50.058;8.306;2024-01-10T15:28:41;-1.70;55.90
15156;DHT22;7678;50.058;8.306;2024-01-10T15:31:14;-1.70;56.90
15156;DHT22;7678;50.058;8.306;2024-01-10T15:33:45;-1.80;56.60
15156;DHT22;7678;50.058;8.306;2024-01-10T15:36:18;-1.70;56.60
15156;DHT22;7678;50.058;8.306;2024-01-10T15:38:48;-1.70;56.60
15156;DHT22;7678;50.058;8.306;2024-01-10T15:41:19;-1.80;56.80
15156;DHT22;7678;50.058;8.306;2024-01-10T15:43:47;-1.90;57.40
15156;DHT22;7678;50.058;8.306;2024-01-10T15:46:18;-1.90;57.50
15156;DHT22;7678;50.058;8.306;2024-01-10T15:48:50;-2.00;57.80
15156;DHT22;7678;50.058;8.306;2024-01-10T15:51:20;-2.10;58.50
15156;DHT22;7678;50.058;8.306;2024-01-10T15:53:48;-2.20;58.60
15156;DHT22;7678;50.058;8.306;2024-01-10T15:56:17;-2.20;59.50
15156;DHT22;7678;50.058;8.306;2024-01-10T15:58:45;-2.30;59.80
15156;DHT22;7678;50.058;8.306;2024-01-10T16:01:14;-2.40;60.00
15156;DHT22;7678;50.058;8.306;2024-01-10T16:03:42;-2.40;60.50
15156;DHT22;7678;50.058;8.306;2024-01-10T16:06:11;-2.50;60.70